EGLL/LHR METAR and TAF weather

Enter ICAO airport designator
Station Type Date Time Source
EGLL METAR 2021/06/22 22:20 UTC NOAA

EGLL 222220Z AUTO VRB03KT 9999 NCD 12/06 Q1023 NOSIG


Station Type Date Time Source
EGLL Decoded METAR 2021/06/22 22:20 UTC NOAA

London / Heathrow Airport, United Kingdom (EGLL) 51-29N 000-27W 0M
Jun 22, 2021 - 06:20 PM EDT / 2021.06.22 2220 UTC
Wind: Variable at 3 MPH (3 KT):0
Visibility: greater than 7 mile(s):0
Temperature: 53 F (12 C)
Dew Point: 42 F (6 C)
Relative Humidity: 66%
Pressure (altimeter): 30.21 in. Hg (1023 hPa)
ob: EGLL 222220Z AUTO VRB03KT 9999 NCD 12/06 Q1023 NOSIG
cycle: 22

Station Type Date Time Source
EGLL TAF 2021/06/22 21:36 UTC NOAA

TAF
AMD EGLL 222130Z 2221/2324 03005KT 9999 FEW048

Example: see airport list